Time;durP1;ratioP1;P1;durP2;ratioP2;P2;SDS_P1;SDS_P2;PMS_P1;PMS_P2;Temp;Humidity;BMP_temperature;BMP_pressure;BME280_temperature;BME280_humidity;BME280_pressure;Samples;Min_cycle;Max_cycle;Signal;HPM_P1;HPM_P2
2023/05/02 00:00:04;;;;;;;2.20;2.20;;;;;;;;;;5071892;28;20417;-66
2023/05/02 00:02:30;;;;;;;2.97;2.87;;;;;;;;;;5072760;28;20539;-66
2023/05/02 00:04:56;;;;;;;2.90;2.90;;;;;;;;;;5072658;28;20917;-66
2023/05/02 00:07:22;;;;;;;2.43;2.30;;;;;;;;;;5070948;28;20819;-66
2023/05/02 00:09:48;;;;;;;2.43;2.40;;;;;;;;;;5072098;28;21000;-66
2023/05/02 00:12:14;;;;;;;2.60;2.50;;;;;;;;;;5069653;28;20528;-66
2023/05/02 00:14:40;;;;;;;2.53;2.53;;;;;;;;;;5072433;28;20944;-66
2023/05/02 00:17:06;;;;;;;3.10;3.00;;;;;;;;;;5071313;28;20948;-66
2023/05/02 00:19:32;;;;;;;2.90;2.90;;;;;;;;;;5071851;28;20982;-66
2023/05/02 00:21:58;;;;;;;4.93;2.67;;;;;;;;;;5068700;28;20468;-66
2023/05/02 00:24:24;;;;;;;2.97;2.93;;;;;;;;;;5069509;28;20460;-66
2023/05/02 00:26:50;;;;;;;3.37;3.27;;;;;;;;;;5068866;28;20473;-66
2023/05/02 00:29:16;;;;;;;4.17;3.97;;;;;;;;;;5071448;28;20445;-66
2023/05/02 00:31:43;;;;;;;4.00;3.80;;;;;;;;;;5069314;28;20441;-66
2023/05/02 00:34:09;;;;;;;4.60;4.30;;;;;;;;;;5072187;28;20424;-66
2023/05/02 00:36:35;;;;;;;5.13;4.27;;;;;;;;;;5072341;28;20976;-66
2023/05/02 00:39:01;;;;;;;3.63;3.53;;;;;;;;;;5071720;28;20417;-66
2023/05/02 00:41:26;;;;;;;7.20;3.57;;;;;;;;;;5069477;28;20541;-66
2023/05/02 00:43:52;;;;;;;2.20;2.20;;;;;;;;;;5072017;28;20413;-66
2023/05/02 00:46:18;;;;;;;3.37;3.00;;;;;;;;;;5071852;28;20465;-66
2023/05/02 00:48:45;;;;;;;4.57;3.47;;;;;;;;;;5071475;28;20985;-66
2023/05/02 00:51:12;;;;;;;2.87;2.77;;;;;;;;;;5067937;28;20433;-66
2023/05/02 00:53:38;;;;;;;2.80;2.70;;;;;;;;;;5068511;28;20537;-66
2023/05/02 00:56:04;;;;;;;3.07;2.90;;;;;;;;;;5069728;28;20437;-66
2023/05/02 00:58:30;;;;;;;3.60;3.33;;;;;;;;;;5069241;28;20445;-66
2023/05/02 01:00:56;;;;;;;4.37;4.17;;;;;;;;;;5068283;28;20922;-66
2023/05/02 01:03:39;;;;;;;3.13;3.07;;;;;;;;;;5069539;28;20441;-66
2023/05/02 01:06:18;;;;;;;2.97;2.87;;;;;;;;;;5071784;28;20273;-66
2023/05/02 01:08:49;;;;;;;4.50;3.43;;;;;;;;;;5068893;28;20485;-66
2023/05/02 01:11:22;;;;;;;3.40;3.30;;;;;;;;;;5069244;28;20437;-66
2023/05/02 01:13:51;;;;;;;3.60;3.50;;;;;;;;;;5067743;28;20937;-66
2023/05/02 01:16:19;;;;;;;3.90;3.80;;;;;;;;;;5071355;28;20425;-66
2023/05/02 01:18:47;;;;;;;3.03;2.90;;;;;;;;;;5068923;28;20425;-66
2023/05/02 01:21:13;;;;;;;3.60;3.47;;;;;;;;;;5071059;28;20417;-66
2023/05/02 01:24:02;;;;;;;3.50;3.20;;;;;;;;;;5069485;28;20449;-66
2023/05/02 01:26:51;;;;;;;4.20;3.37;;;;;;;;;;5069657;28;20455;-66
2023/05/02 01:29:18;;;;;;;3.57;3.37;;;;;;;;;;5070290;28;20433;-66
2023/05/02 01:31:46;;;;;;;3.00;3.00;;;;;;;;;;5069010;28;20445;-66
2023/05/02 01:34:12;;;;;;;3.17;3.07;;;;;;;;;;5066712;28;20441;-66
2023/05/02 01:36:42;;;;;;;3.10;3.10;;;;;;;;;;5070979;28;20413;-66
2023/05/02 01:39:13;;;;;;;5.07;3.70;;;;;;;;;;5068768;28;20961;-66
2023/05/02 01:41:41;;;;;;;3.60;3.50;;;;;;;;;;5069028;28;20425;-66
2023/05/02 01:44:08;;;;;;;2.87;2.77;;;;;;;;;;5070730;28;20471;-66
2023/05/02 01:46:36;;;;;;;3.30;3.10;;;;;;;;;;5068684;28;20481;-66
2023/05/02 01:49:03;;;;;;;3.60;3.40;;;;;;;;;;5070384;28;20921;-66
2023/05/02 01:51:34;;;;;;;3.37;3.27;;;;;;;;;;5070692;28;22032;-66
2023/05/02 01:54:02;;;;;;;3.73;3.63;;;;;;;;;;5064930;28;20461;-66
2023/05/02 01:56:31;;;;;;;3.70;3.60;;;;;;;;;;5067972;28;20807;-66
2023/05/02 01:58:57;;;;;;;3.33;3.23;;;;;;;;;;5069475;28;20433;-67
2023/05/02 02:01:26;;;;;;;3.23;3.13;;;;;;;;;;5068980;28;20788;-66
2023/05/02 02:03:54;;;;;;;3.50;3.20;;;;;;;;;;5067864;28;20848;-66
2023/05/02 02:06:20;;;;;;;3.20;3.20;;;;;;;;;;5070440;28;20855;-66
2023/05/02 02:08:46;;;;;;;2.50;2.50;;;;;;;;;;5067034;28;20489;-66
2023/05/02 02:11:16;;;;;;;2.73;2.63;;;;;;;;;;5070014;28;20563;-66
2023/05/02 02:13:49;;;;;;;4.03;3.00;;;;;;;;;;5067500;28;20824;-66
2023/05/02 02:16:19;;;;;;;5.53;3.20;;;;;;;;;;5070270;28;20944;-66
2023/05/02 02:18:45;;;;;;;2.97;2.87;;;;;;;;;;5069949;28;20788;-66
2023/05/02 02:21:12;;;;;;;3.80;3.03;;;;;;;;;;5068584;28;20925;-66
2023/05/02 02:23:42;;;;;;;3.23;3.03;;;;;;;;;;5068477;28;20453;-66
2023/05/02 02:26:08;;;;;;;2.63;2.43;;;;;;;;;;5070311;28;20917;-66
2023/05/02 02:28:34;;;;;;;2.83;2.73;;;;;;;;;;5069678;28;20542;-66
2023/05/02 02:31:00;;;;;;;2.50;2.30;;;;;;;;;;5066041;28;20438;-66
2023/05/02 02:33:29;;;;;;;7.30;2.40;;;;;;;;;;5068686;28;20675;-66
2023/05/02 02:35:59;;;;;;;2.13;2.13;;;;;;;;;;5067575;28;20435;-66
2023/05/02 02:38:44;;;;;;;2.40;2.33;;;;;;;;;;5068171;28;20506;-67
2023/05/02 02:41:16;;;;;;;2.40;2.30;;;;;;;;;;5069302;28;20778;-67
2023/05/02 02:43:47;;;;;;;4.17;2.60;;;;;;;;;;5069421;28;20417;-67
2023/05/02 02:46:19;;;;;;;3.43;3.23;;;;;;;;;;5069572;28;20468;-67
2023/05/02 02:49:02;;;;;;;2.63;2.57;;;;;;;;;;5066865;28;20512;-67
2023/05/02 02:51:30;;;;;;;2.30;2.30;;;;;;;;;;5069166;28;20426;-67
2023/05/02 02:54:15;;;;;;;3.23;2.23;;;;;;;;;;5068305;28;20504;-66
2023/05/02 02:56:42;;;;;;;2.97;2.77;;;;;;;;;;5068541;28;20441;-68
2023/05/02 02:59:08;;;;;;;3.60;3.40;;;;;;;;;;5064185;28;21024;-66
2023/05/02 03:01:37;;;;;;;3.00;2.90;;;;;;;;;;5067672;28;20601;-67
2023/05/02 03:04:05;;;;;;;5.30;3.60;;;;;;;;;;5069539;28;20212;-66
2023/05/02 03:06:31;;;;;;;4.33;3.93;;;;;;;;;;5067871;28;20515;-67
2023/05/02 03:08:58;;;;;;;3.80;3.70;;;;;;;;;;5069206;28;20908;-66
2023/05/02 03:11:24;;;;;;;3.03;2.83;;;;;;;;;;5067224;28;20443;-67
2023/05/02 03:13:51;;;;;;;6.90;4.77;;;;;;;;;;5067213;28;20441;-67
2023/05/02 03:16:34;;;;;;;4.07;3.83;;;;;;;;;;5069532;28;21390;-66
2023/05/02 03:19:00;;;;;;;3.33;3.13;;;;;;;;;;5069063;28;20429;-67
2023/05/02 03:21:26;;;;;;;4.33;2.37;;;;;;;;;;5066501;28;20451;-66
2023/05/02 03:23:52;;;;;;;2.30;2.20;;;;;;;;;;5066016;28;20951;-69
2023/05/02 03:26:18;;;;;;;3.33;3.23;;;;;;;;;;5069453;28;20471;-69
2023/05/02 03:28:47;;;;;;;3.30;3.00;;;;;;;;;;5068728;28;20561;-69
2023/05/02 03:31:14;;;;;;;3.47;2.80;;;;;;;;;;5067742;28;20408;-67
2023/05/02 03:33:40;;;;;;;6.63;3.10;;;;;;;;;;5069316;28;20488;-67
2023/05/02 03:36:06;;;;;;;2.73;2.50;;;;;;;;;;5066118;28;20924;-68
2023/05/02 03:38:32;;;;;;;3.33;3.13;;;;;;;;;;5069185;28;20437;-67
2023/05/02 03:40:58;;;;;;;3.50;3.30;;;;;;;;;;5068434;28;20428;-66
2023/05/02 03:43:25;;;;;;;7.60;2.40;;;;;;;;;;5063226;28;20441;-68
2023/05/02 03:45:51;;;;;;;2.93;2.77;;;;;;;;;;5069078;28;20556;-67
2023/05/02 03:48:17;;;;;;;2.70;2.60;;;;;;;;;;5069225;28;20585;-68
2023/05/02 03:50:43;;;;;;;2.73;2.63;;;;;;;;;;5067103;28;20432;-67
2023/05/02 03:53:09;;;;;;;2.70;2.50;;;;;;;;;;5069392;28;20417;-68
2023/05/02 03:55:42;;;;;;;2.63;2.27;;;;;;;;;;5069184;28;20414;-67
2023/05/02 03:58:09;;;;;;;3.90;2.67;;;;;;;;;;5068519;28;20937;-69
2023/05/02 04:00:37;;;;;;;7.83;4.10;;;;;;;;;;5067335;28;20474;-67
2023/05/02 04:03:03;;;;;;;3.30;2.97;;;;;;;;;;5072774;28;20434;-67
2023/05/02 04:05:29;;;;;;;4.20;2.90;;;;;;;;;;5069562;28;20452;-67
2023/05/02 04:07:55;;;;;;;2.70;2.60;;;;;;;;;;5072805;28;20473;-67
2023/05/02 04:10:21;;;;;;;2.70;2.60;;;;;;;;;;5070414;28;20417;-67
2023/05/02 04:12:47;;;;;;;3.20;3.00;;;;;;;;;;5072278;28;20425;-66
2023/05/02 04:15:13;;;;;;;3.00;2.90;;;;;;;;;;5069767;28;20437;-66
2023/05/02 04:17:39;;;;;;;3.43;2.50;;;;;;;;;;5072778;28;20529;-66
2023/05/02 04:20:06;;;;;;;3.07;2.97;;;;;;;;;;5068595;28;20765;-67
2023/05/02 04:22:32;;;;;;;2.60;2.50;;;;;;;;;;5060924;28;20446;-67
2023/05/02 04:24:58;;;;;;;2.33;2.23;;;;;;;;;;5069769;28;20444;-67
2023/05/02 04:27:25;;;;;;;3.27;2.60;;;;;;;;;;5070555;28;20486;-68
2023/05/02 04:29:52;;;;;;;3.63;3.43;;;;;;;;;;5069256;28;20452;-66
2023/05/02 04:32:18;;;;;;;3.27;3.17;;;;;;;;;;5071655;28;20475;-69
2023/05/02 04:34:44;;;;;;;2.50;2.30;;;;;;;;;;5071748;28;20433;-68
2023/05/02 04:37:10;;;;;;;2.97;2.70;;;;;;;;;;5070247;28;20817;-68
2023/05/02 04:39:36;;;;;;;2.83;2.63;;;;;;;;;;5068235;28;20437;-66
2023/05/02 04:42:01;;;;;;;2.27;2.20;;;;;;;;;;5070923;28;20425;-67
2023/05/02 04:44:27;;;;;;;2.53;2.00;;;;;;;;;;5069453;28;20417;-67
2023/05/02 04:46:53;;;;;;;8.20;2.13;;;;;;;;;;5064297;28;20445;-66
2023/05/02 04:49:20;;;;;;;6.63;2.43;;;;;;;;;;5103159;28;20425;-66
2023/05/02 04:51:45;;;;;;;2.40;2.30;;;;;;;;;;5069478;28;20447;-69
2023/05/02 04:54:12;;;;;;;2.30;2.20;;;;;;;;;;5071237;28;20524;-67
2023/05/02 04:56:39;;;;;;;2.53;2.40;;;;;;;;;;5066311;28;20457;-67
2023/05/02 04:59:05;;;;;;;3.30;3.10;;;;;;;;;;5069365;28;20424;-68
2023/05/02 05:01:31;;;;;;;2.13;2.03;;;;;;;;;;5068838;28;20441;-66
2023/05/02 05:03:57;;;;;;;2.77;2.33;;;;;;;;;;5067935;28;20441;-72
2023/05/02 05:06:23;;;;;;;2.10;2.10;;;;;;;;;;5071386;28;20417;-69
2023/05/02 05:08:49;;;;;;;2.90;2.80;;;;;;;;;;5058354;28;20490;-67
2023/05/02 05:11:15;;;;;;;2.80;2.73;;;;;;;;;;5061774;28;20434;-67
2023/05/02 05:13:41;;;;;;;2.47;2.37;;;;;;;;;;5067788;28;20858;-67
2023/05/02 05:16:07;;;;;;;3.40;3.20;;;;;;;;;;5070187;28;20437;-70
2023/05/02 05:18:39;;;;;;;3.33;2.90;;;;;;;;;;5067702;28;20446;-72
2023/05/02 05:21:06;;;;;;;2.77;2.60;;;;;;;;;;5068634;28;20971;-69
2023/05/02 05:23:32;;;;;;;2.60;2.50;;;;;;;;;;5065097;28;20997;-68
2023/05/02 05:25:58;;;;;;;5.43;3.40;;;;;;;;;;5070880;28;20414;-68
2023/05/02 05:28:26;;;;;;;2.83;2.73;;;;;;;;;;5068937;28;20481;-67
2023/05/02 05:30:52;;;;;;;2.70;2.60;;;;;;;;;;5059751;28;20544;-75
2023/05/02 05:33:17;;;;;;;2.73;2.63;;;;;;;;;;5062369;28;20602;-73
2023/05/02 05:35:43;;;;;;;3.00;2.90;;;;;;;;;;5069864;28;20905;-70
2023/05/02 05:38:09;;;;;;;2.57;2.47;;;;;;;;;;5068983;28;20924;-68
2023/05/02 05:40:35;;;;;;;4.90;2.73;;;;;;;;;;5067208;28;20437;-67
2023/05/02 05:43:01;;;;;;;2.60;2.60;;;;;;;;;;5066586;28;20987;-69
2023/05/02 05:45:27;;;;;;;3.63;3.30;;;;;;;;;;5070538;28;20682;-72
2023/05/02 05:47:54;;;;;;;3.00;2.93;;;;;;;;;;5068252;28;20854;-69
2023/05/02 05:50:20;;;;;;;3.47;3.13;;;;;;;;;;5070214;28;20428;-68
2023/05/02 05:52:46;;;;;;;3.10;3.00;;;;;;;;;;5069229;28;20792;-67
2023/05/02 05:55:12;;;;;;;2.97;2.77;;;;;;;;;;5063219;28;20901;-68
2023/05/02 05:57:38;;;;;;;2.50;2.50;;;;;;;;;;5067242;28;20486;-68
2023/05/02 06:00:06;;;;;;;11.50;3.50;;;;;;;;;;5068661;28;20463;-70
2023/05/02 06:02:32;;;;;;;3.10;3.00;;;;;;;;;;5069672;28;20460;-70
2023/05/02 06:04:58;;;;;;;2.60;2.50;;;;;;;;;;5070537;28;20882;-68
2023/05/02 06:07:24;;;;;;;4.47;4.10;;;;;;;;;;5069711;28;20552;-69
2023/05/02 06:09:50;;;;;;;7.93;2.33;;;;;;;;;;5069381;28;20833;-69
2023/05/02 06:12:16;;;;;;;2.70;2.60;;;;;;;;;;5068805;28;20469;-67
2023/05/02 06:14:42;;;;;;;3.10;2.80;;;;;;;;;;5069804;28;20457;-67
2023/05/02 06:17:07;;;;;;;2.50;2.50;;;;;;;;;;5067934;28;20437;-67
2023/05/02 06:19:33;;;;;;;3.67;3.57;;;;;;;;;;5064055;28;20445;-68
2023/05/02 06:21:59;;;;;;;5.13;2.70;;;;;;;;;;5065597;28;20439;-67
2023/05/02 06:24:25;;;;;;;2.33;2.33;;;;;;;;;;5069123;28;20468;-67
2023/05/02 06:26:51;;;;;;;2.97;2.97;;;;;;;;;;5069145;28;20425;-68
2023/05/02 06:29:17;;;;;;;4.80;2.83;;;;;;;;;;5067822;28;20438;-68
2023/05/02 06:31:43;;;;;;;3.30;3.10;;;;;;;;;;5066834;28;20989;-67
2023/05/02 06:34:09;;;;;;;2.77;2.57;;;;;;;;;;5066965;28;20997;-68
2023/05/02 06:36:35;;;;;;;2.57;2.47;;;;;;;;;;5058952;28;20425;-68
2023/05/02 06:39:01;;;;;;;3.03;2.93;;;;;;;;;;5068895;28;20436;-68
2023/05/02 06:41:27;;;;;;;3.37;3.20;;;;;;;;;;5069015;28;20421;-67
2023/05/02 06:43:53;;;;;;;3.30;3.20;;;;;;;;;;5067377;28;20452;-67
2023/05/02 06:46:19;;;;;;;4.33;3.50;;;;;;;;;;5068792;28;20485;-66
2023/05/02 06:48:45;;;;;;;4.13;3.70;;;;;;;;;;5068351;28;20913;-66
2023/05/02 06:51:14;;;;;;;3.57;3.03;;;;;;;;;;5068364;28;21059;-66
2023/05/02 06:53:40;;;;;;;3.37;3.27;;;;;;;;;;5065533;28;20441;-67
2023/05/02 06:56:06;;;;;;;3.10;2.90;;;;;;;;;;5068100;28;20417;-66
2023/05/02 06:58:32;;;;;;;4.47;4.10;;;;;;;;;;5060429;28;20612;-66
2023/05/02 07:00:58;;;;;;;5.60;4.57;;;;;;;;;;5067349;28;20768;-66
2023/05/02 07:03:24;;;;;;;4.27;3.93;;;;;;;;;;5065022;28;20444;-66
2023/05/02 07:05:50;;;;;;;6.13;5.53;;;;;;;;;;5067561;28;21071;-68
2023/05/02 07:08:17;;;;;;;8.93;6.67;;;;;;;;;;5064520;28;21229;-67
2023/05/02 07:10:43;;;;;;;5.50;5.10;;;;;;;;;;5065491;28;20438;-68
2023/05/02 07:13:09;;;;;;;5.30;4.50;;;;;;;;;;5065023;28;20460;-67
2023/05/02 07:15:35;;;;;;;3.97;3.83;;;;;;;;;;5067568;28;20520;-67
2023/05/02 07:18:01;;;;;;;5.57;5.00;;;;;;;;;;5069051;28;20930;-67
2023/05/02 07:20:27;;;;;;;4.93;4.73;;;;;;;;;;5068002;28;20409;-66
2023/05/02 07:22:53;;;;;;;6.47;6.10;;;;;;;;;;5064336;28;20813;-67
2023/05/02 07:25:19;;;;;;;5.90;5.60;;;;;;;;;;5064143;28;20448;-65
2023/05/02 07:27:45;;;;;;;13.20;7.43;;;;;;;;;;5065741;28;20493;-69
2023/05/02 07:30:11;;;;;;;9.13;7.87;;;;;;;;;;5064628;28;20557;-71
2023/05/02 07:32:37;;;;;;;7.50;7.00;;;;;;;;;;5067909;28;20448;-67
2023/05/02 07:35:03;;;;;;;10.80;9.43;;;;;;;;;;5068467;28;20441;-66
2023/05/02 07:37:36;;;;;;;9.40;8.50;;;;;;;;;;5069731;28;20445;-66
2023/05/02 07:40:02;;;;;;;9.97;9.23;;;;;;;;;;5068394;28;20465;-70
2023/05/02 07:42:31;;;;;;;9.87;8.97;;;;;;;;;;5070936;28;20925;-67
2023/05/02 07:44:58;;;;;;;20.13;11.80;;;;;;;;;;5066769;28;20477;-66
2023/05/02 07:47:25;;;;;;;11.27;10.00;;;;;;;;;;5070893;28;20527;-70
2023/05/02 07:49:52;;;;;;;13.73;12.00;;;;;;;;;;5068858;28;20453;-66
2023/05/02 07:52:19;;;;;;;9.73;9.00;;;;;;;;;;5068448;28;20465;-66
2023/05/02 07:54:47;;;;;;;12.57;11.43;;;;;;;;;;5073058;28;20464;-66
2023/05/02 07:57:13;;;;;;;12.93;11.63;;;;;;;;;;5071095;28;20503;-69
2023/05/02 07:59:39;;;;;;;12.57;11.43;;;;;;;;;;5068147;28;20548;-66
2023/05/02 08:02:05;;;;;;;13.10;11.50;;;;;;;;;;5068713;28;20451;-67
2023/05/02 08:04:31;;;;;;;12.57;11.30;;;;;;;;;;5070806;28;20448;-67
2023/05/02 08:06:57;;;;;;;20.80;10.60;;;;;;;;;;5071460;28;20516;-66
2023/05/02 08:09:25;;;;;;;13.27;10.97;;;;;;;;;;5063246;28;20460;-67
2023/05/02 08:11:51;;;;;;;13.73;10.37;;;;;;;;;;5070665;28;21036;-71
2023/05/02 08:14:17;;;;;;;12.93;11.43;;;;;;;;;;5071300;28;21014;-71
2023/05/02 08:16:43;;;;;;;11.27;9.90;;;;;;;;;;5068572;28;20447;-67
2023/05/02 08:19:10;;;;;;;10.00;9.10;;;;;;;;;;5070845;28;20437;-66
2023/05/02 08:21:36;;;;;;;11.50;10.40;;;;;;;;;;5070169;28;20437;-67
2023/05/02 08:24:02;;;;;;;11.10;10.20;;;;;;;;;;5072684;28;21055;-66
2023/05/02 08:26:28;;;;;;;12.80;11.70;;;;;;;;;;5072225;28;20430;-68
2023/05/02 08:28:54;;;;;;;12.80;11.50;;;;;;;;;;5070654;28;20483;-66
2023/05/02 08:31:20;;;;;;;10.97;10.07;;;;;;;;;;5071159;28;20478;-66
2023/05/02 08:33:47;;;;;;;14.50;11.00;;;;;;;;;;5068054;28;20449;-67
2023/05/02 08:36:13;;;;;;;14.80;11.50;;;;;;;;;;5067671;28;20464;-66
2023/05/02 08:38:39;;;;;;;10.90;9.90;;;;;;;;;;5070440;28;20437;-66
2023/05/02 08:41:16;;;;;;;12.27;11.13;;;;;;;;;;5068703;28;20515;-67
2023/05/02 08:43:42;;;;;;;12.50;11.40;;;;;;;;;;5066668;28;20437;-67
2023/05/02 08:46:09;;;;;;;12.20;11.20;;;;;;;;;;5068251;28;20526;-66
2023/05/02 08:48:36;;;;;;;12.23;11.23;;;;;;;;;;5064696;28;20476;-66
2023/05/02 08:51:03;;;;;;;12.63;10.60;;;;;;;;;;5068986;28;20507;-68
2023/05/02 08:53:31;;;;;;;14.43;10.73;;;;;;;;;;5069961;28;20452;-66
2023/05/02 08:55:59;;;;;;;18.10;11.00;;;;;;;;;;5069113;28;20429;-68
2023/05/02 08:58:25;;;;;;;19.67;10.10;;;;;;;;;;5067375;28;20454;-66
2023/05/02 09:00:51;;;;;;;12.60;10.53;;;;;;;;;;5068050;28;20449;-66
2023/05/02 09:03:36;;;;;;;11.53;10.33;;;;;;;;;;5070532;28;20921;-66
2023/05/02 09:06:04;;;;;;;10.17;9.17;;;;;;;;;;5066455;28;20448;-66
2023/05/02 09:08:30;;;;;;;10.97;10.00;;;;;;;;;;5067675;28;20901;-66
2023/05/02 09:10:57;;;;;;;11.00;9.90;;;;;;;;;;5067525;28;20443;-66
2023/05/02 09:13:29;;;;;;;11.50;10.20;;;;;;;;;;5065879;28;20450;-67
2023/05/02 09:15:59;;;;;;;11.37;10.27;;;;;;;;;;5064265;28;20441;-67
2023/05/02 09:18:27;;;;;;;9.13;8.47;;;;;;;;;;5067272;28;20447;-67
2023/05/02 09:20:54;;;;;;;9.70;8.90;;;;;;;;;;5067028;28;20443;-67
2023/05/02 09:23:20;;;;;;;9.70;9.00;;;;;;;;;;5065832;28;20441;-67
2023/05/02 09:25:46;;;;;;;9.53;9.03;;;;;;;;;;5069664;28;20428;-67
2023/05/02 09:28:12;;;;;;;8.33;7.73;;;;;;;;;;5066353;28;20480;-66
2023/05/02 09:30:38;;;;;;;9.07;8.17;;;;;;;;;;5069585;28;21003;-67
2023/05/02 09:33:04;;;;;;;6.77;6.30;;;;;;;;;;5068422;28;20445;-65
2023/05/02 09:35:30;;;;;;;8.63;7.93;;;;;;;;;;5069361;28;20448;-66
2023/05/02 09:37:56;;;;;;;15.50;10.07;;;;;;;;;;5069259;28;20439;-67
2023/05/02 09:40:23;;;;;;;9.83;8.90;;;;;;;;;;5066752;28;20440;-66
2023/05/02 09:42:49;;;;;;;9.93;8.50;;;;;;;;;;5069708;28;20789;-67
2023/05/02 09:45:22;;;;;;;11.10;8.83;;;;;;;;;;5069558;28;20461;-68
2023/05/02 09:47:48;;;;;;;7.90;7.30;;;;;;;;;;5066120;28;20476;-67
2023/05/02 09:50:32;;;;;;;7.70;7.20;;;;;;;;;;5066197;28;20433;-66
2023/05/02 09:53:05;;;;;;;12.10;9.77;;;;;;;;;;5069533;28;20429;-67
2023/05/02 09:55:31;;;;;;;9.10;8.30;;;;;;;;;;5069428;28;20445;-68
2023/05/02 09:57:58;;;;;;;12.63;11.30;;;;;;;;;;5070036;28;20433;-67
2023/05/02 10:00:40;;;;;;;10.17;9.30;;;;;;;;;;5062124;28;21016;-67
2023/05/02 10:03:07;;;;;;;12.07;9.03;;;;;;;;;;5070359;28;20759;-66
2023/05/02 10:05:36;;;;;;;10.43;9.47;;;;;;;;;;5067774;28;20485;-68
2023/05/02 10:08:04;;;;;;;10.00;8.90;;;;;;;;;;5066033;28;20520;-67
2023/05/02 10:10:31;;;;;;;10.60;9.60;;;;;;;;;;5068384;28;20414;-67
2023/05/02 10:12:58;;;;;;;7.80;7.20;;;;;;;;;;5070149;28;20418;-66
2023/05/02 10:15:25;;;;;;;8.27;7.57;;;;;;;;;;5065037;28;20463;-67
2023/05/02 10:17:51;;;;;;;13.93;8.30;;;;;;;;;;5069609;28;20528;-67
2023/05/02 10:20:22;;;;;;;9.50;8.87;;;;;;;;;;5069310;28;20432;-69
2023/05/02 10:22:49;;;;;;;10.53;8.70;;;;;;;;;;5069723;28;20477;-68
2023/05/02 10:25:15;;;;;;;10.13;8.60;;;;;;;;;;5067235;28;20417;-67
2023/05/02 10:27:41;;;;;;;10.17;9.37;;;;;;;;;;5067258;28;20546;-67
2023/05/02 10:30:07;;;;;;;9.17;8.07;;;;;;;;;;5066159;28;20926;-68
2023/05/02 10:32:33;;;;;;;9.60;8.50;;;;;;;;;;5069606;28;20426;-66
2023/05/02 10:35:07;;;;;;;8.87;8.20;;;;;;;;;;5068387;28;20502;-67
2023/05/02 10:37:34;;;;;;;10.53;8.00;;;;;;;;;;5049380;28;20441;-66
2023/05/02 10:40:00;;;;;;;18.33;9.50;;;;;;;;;;5067795;28;20425;-67
2023/05/02 10:42:26;;;;;;;8.17;7.63;;;;;;;;;;5067525;28;20424;-67
2023/05/02 10:44:52;;;;;;;8.07;7.53;;;;;;;;;;5063750;28;20465;-67
2023/05/02 10:47:19;;;;;;;10.00;9.30;;;;;;;;;;5067267;28;20565;-67
2023/05/02 10:49:49;;;;;;;9.13;8.23;;;;;;;;;;5068712;28;20440;-66
2023/05/02 10:52:26;;;;;;;9.27;8.33;;;;;;;;;;5069126;28;20410;-68
2023/05/02 10:54:52;;;;;;;9.00;8.10;;;;;;;;;;5067973;28;20794;-68
2023/05/02 10:57:18;;;;;;;15.20;8.20;;;;;;;;;;5062432;28;20433;-67
2023/05/02 10:59:45;;;;;;;9.40;7.50;;;;;;;;;;5065801;28;20437;-68
2023/05/02 11:02:24;;;;;;;9.50;8.20;;;;;;;;;;5069238;28;20906;-66
2023/05/02 11:05:02;;;;;;;7.93;6.87;;;;;;;;;;5068948;28;21137;-67
2023/05/02 11:07:29;;;;;;;9.37;8.53;;;;;;;;;;5068004;28;20472;-67
2023/05/02 11:10:14;;;;;;;14.03;9.30;;;;;;;;;;5067574;28;20426;-67
2023/05/02 11:12:47;;;;;;;12.50;8.73;;;;;;;;;;5066829;28;20812;-67
2023/05/02 11:15:13;;;;;;;8.03;7.20;;;;;;;;;;5067065;28;20437;-67
2023/05/02 11:18:01;;;;;;;7.90;7.30;;;;;;;;;;5065189;28;20460;-67
2023/05/02 11:20:27;;;;;;;10.63;7.67;;;;;;;;;;5068843;28;20425;-66
2023/05/02 11:22:57;;;;;;;11.43;6.63;;;;;;;;;;5068657;28;20933;-67
2023/05/02 11:25:42;;;;;;;11.70;8.40;;;;;;;;;;5065046;28;20429;-66
2023/05/02 11:28:28;;;;;;;6.20;5.90;;;;;;;;;;5064492;28;20492;-67
2023/05/02 11:30:54;;;;;;;7.80;7.30;;;;;;;;;;5096558;28;20437;-66
2023/05/02 11:33:20;;;;;;;6.27;5.90;;;;;;;;;;5069410;28;20423;-67
2023/05/02 11:35:46;;;;;;;7.20;6.70;;;;;;;;;;5069252;28;20449;-67
2023/05/02 11:38:13;;;;;;;6.93;6.53;;;;;;;;;;5069542;28;20422;-67
2023/05/02 11:40:40;;;;;;;8.40;7.60;;;;;;;;;;5064720;28;20484;-66
2023/05/02 11:43:15;;;;;;;9.20;8.40;;;;;;;;;;5068194;28;20511;-67
2023/05/02 11:45:41;;;;;;;10.23;9.10;;;;;;;;;;5066771;28;20967;-67
2023/05/02 11:48:08;;;;;;;7.70;7.10;;;;;;;;;;5069199;28;20550;-67
2023/05/02 11:50:40;;;;;;;8.10;7.50;;;;;;;;;;5066499;28;20445;-67
2023/05/02 11:53:09;;;;;;;12.23;8.63;;;;;;;;;;5068197;28;20437;-67
2023/05/02 11:55:35;;;;;;;10.60;7.03;;;;;;;;;;5066410;28;20441;-63
2023/05/02 11:58:01;;;;;;;8.40;7.80;;;;;;;;;;5068736;28;20424;-66
2023/05/02 12:00:27;;;;;;;10.80;9.77;;;;;;;;;;5065045;28;20444;-67
2023/05/02 12:02:53;;;;;;;6.27;5.83;;;;;;;;;;5068620;28;20417;-67
2023/05/02 12:05:28;;;;;;;8.70;5.50;;;;;;;;;;5067596;28;20932;-67
2023/05/02 12:07:54;;;;;;;6.17;5.67;;;;;;;;;;5067775;28;21019;-67
2023/05/02 12:10:20;;;;;;;7.00;6.33;;;;;;;;;;5064826;28;20445;-68
2023/05/02 12:12:47;;;;;;;5.93;5.50;;;;;;;;;;5063347;28;20499;-68
2023/05/02 12:15:13;;;;;;;9.30;4.50;;;;;;;;;;5064373;28;20442;-66
2023/05/02 12:17:40;;;;;;;6.47;6.07;;;;;;;;;;5069131;28;20463;-68
2023/05/02 12:20:08;;;;;;;4.10;3.90;;;;;;;;;;5064402;28;20438;-68
2023/05/02 12:22:34;;;;;;;5.20;4.70;;;;;;;;;;5065170;28;20456;-68
2023/05/02 12:25:02;;;;;;;4.70;4.50;;;;;;;;;;5070233;28;20432;-67
2023/05/02 12:27:28;;;;;;;7.47;5.07;;;;;;;;;;5069998;28;20939;-68
2023/05/02 12:29:56;;;;;;;4.40;4.10;;;;;;;;;;5071073;28;20445;-67
2023/05/02 12:32:35;;;;;;;10.37;4.37;;;;;;;;;;5071244;28;20425;-69
2023/05/02 12:35:02;;;;;;;3.10;3.00;;;;;;;;;;5072187;28;20429;-69
2023/05/02 12:37:28;;;;;;;2.27;2.07;;;;;;;;;;5070642;28;20477;-69
2023/05/02 12:39:57;;;;;;;2.30;2.10;;;;;;;;;;5071467;28;20429;-68
2023/05/02 12:42:24;;;;;;;2.10;1.90;;;;;;;;;;5070312;28;20471;-67
2023/05/02 12:44:51;;;;;;;2.50;2.40;;;;;;;;;;5070831;28;20473;-69
2023/05/02 12:47:17;;;;;;;3.93;3.60;;;;;;;;;;5069740;28;20520;-67
2023/05/02 12:49:56;;;;;;;7.50;4.30;;;;;;;;;;5069949;28;20461;-68
2023/05/02 12:52:49;;;;;;;8.20;6.57;;;;;;;;;;5071949;28;20416;-71
2023/05/02 12:55:18;;;;;;;5.93;5.57;;;;;;;;;;5070845;28;20425;-68
2023/05/02 12:57:44;;;;;;;3.63;3.43;;;;;;;;;;5069155;28;20444;-68
2023/05/02 13:00:11;;;;;;;5.90;5.60;;;;;;;;;;5071009;28;20421;-68
2023/05/02 13:02:36;;;;;;;3.97;3.77;;;;;;;;;;5071702;28;20414;-68
2023/05/02 13:05:13;;;;;;;4.23;3.77;;;;;;;;;;5070425;28;20441;-68
2023/05/02 13:07:38;;;;;;;4.50;4.20;;;;;;;;;;5068312;28;20547;-68
2023/05/02 13:10:05;;;;;;;3.30;3.10;;;;;;;;;;5070056;28;20529;-67
2023/05/02 13:12:31;;;;;;;3.87;3.77;;;;;;;;;;5070835;28;20468;-68
2023/05/02 13:14:57;;;;;;;5.00;4.70;;;;;;;;;;5070759;28;21091;-68
2023/05/02 13:17:23;;;;;;;7.50;4.80;;;;;;;;;;5071410;28;20405;-67
2023/05/02 13:19:49;;;;;;;5.70;5.30;;;;;;;;;;5070978;28;20487;-68
2023/05/02 13:22:15;;;;;;;9.53;7.97;;;;;;;;;;5070726;28;20433;-67
2023/05/02 13:24:41;;;;;;;9.80;8.93;;;;;;;;;;5070352;28;20422;-67
2023/05/02 13:27:07;;;;;;;4.63;4.33;;;;;;;;;;5070228;28;20835;-68
2023/05/02 13:29:33;;;;;;;5.77;5.33;;;;;;;;;;5066914;28;20621;-69
2023/05/02 13:31:59;;;;;;;13.73;4.37;;;;;;;;;;5069948;28;20426;-69
2023/05/02 13:34:25;;;;;;;8.13;5.47;;;;;;;;;;5066884;28;20444;-68
2023/05/02 13:36:51;;;;;;;7.03;6.43;;;;;;;;;;5070798;28;20442;-69
2023/05/02 13:39:17;;;;;;;5.93;5.63;;;;;;;;;;5067004;28;20437;-67
2023/05/02 13:41:43;;;;;;;5.70;5.17;;;;;;;;;;5058107;28;20784;-68
2023/05/02 13:44:09;;;;;;;5.57;5.27;;;;;;;;;;5069801;28;20810;-67
2023/05/02 13:46:36;;;;;;;9.30;3.60;;;;;;;;;;5068024;28;20847;-68
2023/05/02 13:49:05;;;;;;;4.90;4.40;;;;;;;;;;5070475;28;20536;-69
2023/05/02 13:51:31;;;;;;;4.90;4.73;;;;;;;;;;5070081;28;20445;-67
2023/05/02 13:53:58;;;;;;;5.70;5.23;;;;;;;;;;5070939;28;20429;-67
2023/05/02 13:56:24;;;;;;;5.53;5.30;;;;;;;;;;5070008;28;20906;-68
2023/05/02 13:58:50;;;;;;;4.50;4.30;;;;;;;;;;5069110;28;20441;-69
2023/05/02 14:01:16;;;;;;;4.53;4.33;;;;;;;;;;5070353;28;20574;-69
2023/05/02 14:03:42;;;;;;;5.53;5.23;;;;;;;;;;5068332;28;20472;-71
2023/05/02 14:06:08;;;;;;;8.90;5.40;;;;;;;;;;5068986;28;20495;-69
2023/05/02 14:08:34;;;;;;;6.17;4.80;;;;;;;;;;5070113;28;20521;-68
2023/05/02 14:11:00;;;;;;;6.27;5.80;;;;;;;;;;5068492;28;20417;-67
2023/05/02 14:13:26;;;;;;;4.77;4.67;;;;;;;;;;5069970;28;20504;-66
2023/05/02 14:15:53;;;;;;;4.60;4.27;;;;;;;;;;5070297;28;20917;-67
2023/05/02 14:18:19;;;;;;;3.77;3.53;;;;;;;;;;5068569;28;20425;-68
2023/05/02 14:20:45;;;;;;;3.97;3.87;;;;;;;;;;5069737;28;20928;-68
2023/05/02 14:23:11;;;;;;;4.50;4.20;;;;;;;;;;5069734;28;20410;-68
2023/05/02 14:25:37;;;;;;;4.20;4.10;;;;;;;;;;5063845;28;20532;-67
2023/05/02 14:28:03;;;;;;;7.97;6.03;;;;;;;;;;5067124;28;21186;-69
2023/05/02 14:30:32;;;;;;;7.33;6.73;;;;;;;;;;5069594;28;20472;-67
2023/05/02 14:32:58;;;;;;;8.10;6.90;;;;;;;;;;5066715;28;20503;-68
2023/05/02 14:35:24;;;;;;;9.17;8.37;;;;;;;;;;5069819;28;20421;-69
2023/05/02 14:37:50;;;;;;;10.63;8.10;;;;;;;;;;5069856;28;20927;-68
2023/05/02 14:40:17;;;;;;;8.57;7.87;;;;;;;;;;5069515;28;20457;-67